Time;durP1;ratioP1;P1;durP2;ratioP2;P2;SDS_P1;SDS_P2;PMS_P1;PMS_P2;Temp;Humidity;BMP_temperature;BMP_pressure;BME280_temperature;BME280_humidity;BME280_pressure;Samples;Min_cycle;Max_cycle;Signal;HPM_P1;HPM_P2
2021/05/04 00:00:23;;;;;;;1.48;1.38;;;21.40;41.90;;;;;;5049799;28;20433;-68
2021/05/04 00:02:50;;;;;;;1.10;1.10;;;21.40;41.90;;;;;;5035812;28;20424;-67
2021/05/04 00:05:16;;;;;;;1.15;1.15;;;21.40;41.90;;;;;;5057065;28;20942;-69
2021/05/04 00:07:42;;;;;;;1.30;1.30;;;21.40;41.80;;;;;;5029063;28;20426;-68
2021/05/04 00:10:11;;;;;;;1.30;1.20;;;21.40;41.90;;;;;;5043335;28;20407;-69
2021/05/04 00:12:37;;;;;;;1.60;1.00;;;21.40;41.80;;;;;;5041746;28;20630;-69
2021/05/04 00:15:05;;;;;;;1.20;1.20;;;21.40;41.90;;;;;;5048404;28;21287;-69
2021/05/04 00:17:31;;;;;;;1.50;1.40;;;21.40;41.80;;;;;;5052821;28;20418;-68
2021/05/04 00:19:57;;;;;;;1.20;1.20;;;21.30;41.80;;;;;;5050897;28;20464;-67
2021/05/04 00:22:23;;;;;;;1.40;1.40;;;21.30;41.80;;;;;;5051776;28;20432;-69
2021/05/04 00:24:49;;;;;;;1.40;1.30;;;21.40;41.90;;;;;;5048663;28;20408;-69
2021/05/04 00:27:16;;;;;;;1.40;1.30;;;21.40;41.80;;;;;;5050203;28;20416;-69
2021/05/04 00:29:42;;;;;;;1.20;1.20;;;21.40;42.60;;;;;;5050449;28;20416;-70
2021/05/04 00:32:08;;;;;;;1.20;1.20;;;21.40;41.70;;;;;;5036315;28;20432;-69
2021/05/04 00:34:35;;;;;;;1.27;1.20;;;21.40;41.60;;;;;;5054152;28;20409;-69
2021/05/04 00:37:01;;;;;;;1.00;1.00;;;21.40;41.70;;;;;;5054225;28;20426;-70
2021/05/04 00:39:33;;;;;;;1.20;1.10;;;21.40;41.70;;;;;;5004160;28;20527;-68
2021/05/04 00:42:00;;;;;;;1.20;1.20;;;21.40;41.70;;;;;;5014011;28;20514;-68
2021/05/04 00:44:27;;;;;;;1.10;1.10;;;21.30;41.80;;;;;;5036384;28;20413;-68
2021/05/04 00:46:53;;;;;;;1.70;1.30;;;21.30;41.80;;;;;;5047473;28;20419;-68
2021/05/04 00:49:19;;;;;;;1.58;1.48;;;21.30;41.70;;;;;;5037211;28;20412;-68
2021/05/04 00:51:45;;;;;;;1.20;1.20;;;21.30;41.60;;;;;;5050777;28;21521;-68
2021/05/04 00:54:11;;;;;;;2.20;1.27;;;21.30;41.80;;;;;;5038436;28;20413;-68
2021/05/04 00:56:37;;;;;;;1.48;1.38;;;21.30;41.60;;;;;;5050526;28;20490;-69
2021/05/04 00:59:04;;;;;;;1.25;1.25;;;21.30;41.70;;;;;;5009377;28;20400;-69
2021/05/04 01:01:31;;;;;;;1.10;1.10;;;21.30;41.60;;;;;;5049973;28;20423;-69
2021/05/04 01:03:57;;;;;;;1.70;1.60;;;21.30;41.70;;;;;;5037498;28;20427;-69
2021/05/04 01:06:23;;;;;;;2.10;1.30;;;21.30;41.60;;;;;;5023328;28;20576;-68
2021/05/04 01:08:49;;;;;;;1.30;1.30;;;21.30;41.70;;;;;;5047319;28;20427;-68
2021/05/04 01:11:15;;;;;;;1.30;1.20;;;21.30;41.70;;;;;;5049145;28;20416;-69
2021/05/04 01:13:41;;;;;;;1.40;1.30;;;21.30;41.70;;;;;;5051355;28;20422;-69
2021/05/04 01:16:08;;;;;;;1.40;1.33;;;21.30;41.70;;;;;;5038147;28;20409;-65
2021/05/04 01:18:35;;;;;;;1.30;1.20;;;21.30;41.70;;;;;;5051039;28;20500;-68
2021/05/04 01:21:02;;;;;;;1.40;1.30;;;21.30;41.40;;;;;;5047970;28;20421;-68
2021/05/04 01:23:28;;;;;;;1.40;1.40;;;21.30;41.60;;;;;;5028958;28;20471;-66
2021/05/04 01:25:54;;;;;;;2.20;1.03;;;21.30;41.50;;;;;;5047399;28;20425;-68
2021/05/04 01:28:21;;;;;;;1.10;1.10;;;21.30;41.50;;;;;;5050133;28;20750;-68
2021/05/04 01:30:47;;;;;;;1.33;1.23;;;21.30;41.70;;;;;;5047433;28;20411;-66
2021/05/04 01:33:13;;;;;;;1.40;1.30;;;21.30;41.70;;;;;;5052773;28;20423;-68
2021/05/04 01:35:39;;;;;;;1.35;1.25;;;21.30;41.70;;;;;;5052928;28;20415;-68
2021/05/04 01:38:06;;;;;;;1.58;1.30;;;21.30;41.70;;;;;;5031221;28;20428;-69
2021/05/04 01:40:32;;;;;;;1.40;1.30;;;21.30;41.70;;;;;;5048248;28;20477;-68
2021/05/04 01:42:58;;;;;;;1.27;1.17;;;21.30;41.60;;;;;;5024246;28;20417;-68
2021/05/04 01:45:24;;;;;;;1.17;1.17;;;21.30;41.60;;;;;;5048574;28;20500;-68
2021/05/04 01:47:51;;;;;;;1.45;1.35;;;21.40;41.60;;;;;;5032052;28;20991;-68
2021/05/04 01:50:17;;;;;;;1.10;1.10;;;21.40;41.50;;;;;;5034729;28;22054;-68
2021/05/04 01:52:43;;;;;;;1.40;1.30;;;21.40;41.40;;;;;;5035915;28;20411;-67
2021/05/04 01:55:11;;;;;;;1.40;1.30;;;21.40;41.40;;;;;;5047092;28;20483;-66
2021/05/04 01:57:37;;;;;;;1.17;1.17;;;21.40;41.60;;;;;;5023204;28;20424;-67
2021/05/04 02:00:05;;;;;;;1.40;1.30;;;21.40;41.50;;;;;;5038527;28;20463;-66
2021/05/04 02:02:31;;;;;;;1.00;1.00;;;21.30;41.50;;;;;;5026657;28;20453;-68
2021/05/04 02:04:57;;;;;;;1.60;1.50;;;21.30;41.60;;;;;;5016030;28;20807;-68
2021/05/04 02:07:23;;;;;;;1.30;1.30;;;21.30;41.80;;;;;;5030093;28;20957;-65
2021/05/04 02:09:49;;;;;;;2.33;1.73;;;21.30;41.70;;;;;;5051987;28;21018;-69
2021/05/04 02:12:16;;;;;;;1.50;1.50;;;21.30;41.50;;;;;;5051561;28;20413;-68
2021/05/04 02:14:42;;;;;;;1.40;1.30;;;21.30;41.70;;;;;;5053543;28;20424;-69
2021/05/04 02:17:09;;;;;;;1.48;1.38;;;21.30;41.70;;;;;;5051371;28;20408;-68
2021/05/04 02:19:37;;;;;;;1.53;1.43;;;21.30;41.70;;;;;;5040985;28;20411;-68
2021/05/04 02:22:03;;;;;;;1.30;1.30;;;21.30;41.70;;;;;;5051021;28;20417;-66
2021/05/04 02:24:29;;;;;;;1.58;1.50;;;21.30;41.70;;;;;;5052365;28;20415;-71
2021/05/04 02:26:55;;;;;;;1.30;1.20;;;21.30;41.80;;;;;;5051976;28;20428;-69
2021/05/04 02:29:22;;;;;;;1.20;1.20;;;21.30;41.80;;;;;;5052891;28;20417;-68
2021/05/04 02:31:48;;;;;;;1.20;1.20;;;21.30;41.80;;;;;;5054517;28;20787;-68
2021/05/04 02:34:14;;;;;;;1.33;1.33;;;21.30;41.70;;;;;;5053380;28;20409;-69
2021/05/04 02:36:40;;;;;;;1.30;1.20;;;21.30;41.60;;;;;;5053585;28;20473;-65
2021/05/04 02:39:07;;;;;;;1.10;1.10;;;21.30;41.60;;;;;;5034113;28;20418;-68
2021/05/04 02:41:33;;;;;;;1.00;1.00;;;21.40;41.70;;;;;;5039970;28;20838;-68
2021/05/04 02:43:59;;;;;;;1.00;1.00;;;21.40;41.70;;;;;;5017810;28;20916;-69
2021/05/04 02:46:29;;;;;;;1.25;1.25;;;21.40;41.60;;;;;;5037709;28;20410;-69
2021/05/04 02:48:55;;;;;;;1.30;1.20;;;21.40;41.50;;;;;;5034391;28;20416;-67
2021/05/04 02:51:21;;;;;;;1.20;1.20;;;21.40;41.50;;;;;;5050236;28;20788;-68
2021/05/04 02:53:47;;;;;;;1.25;1.15;;;21.40;41.40;;;;;;5015965;28;20557;-68
2021/05/04 02:56:13;;;;;;;1.20;1.20;;;21.40;41.40;;;;;;5046847;28;20439;-67
2021/05/04 02:58:39;;;;;;;1.33;1.10;;;21.40;41.30;;;;;;5022890;28;20442;-69
2021/05/04 03:01:06;;;;;;;1.10;1.10;;;21.40;41.50;;;;;;5037391;28;20432;-68
2021/05/04 03:03:34;;;;;;;1.60;1.27;;;21.30;41.40;;;;;;5046185;28;20412;-68
2021/05/04 03:06:00;;;;;;;1.57;1.47;;;21.30;41.50;;;;;;5033617;28;20425;-68
2021/05/04 03:08:27;;;;;;;1.20;1.10;;;21.30;41.40;;;;;;5041056;28;20556;-69
2021/05/04 03:10:53;;;;;;;1.15;1.15;;;21.30;41.60;;;;;;5049206;28;20426;-67
2021/05/04 03:13:22;;;;;;;1.50;1.40;;;21.30;41.50;;;;;;5058568;28;20479;-69
2021/05/04 03:15:48;;;;;;;1.40;1.30;;;21.30;41.50;;;;;;5052239;28;20423;-67
2021/05/04 03:18:14;;;;;;;1.00;1.00;;;21.30;41.40;;;;;;5049994;28;20404;-68
2021/05/04 03:20:41;;;;;;;1.15;1.15;;;21.40;41.30;;;;;;5050064;28;20769;-69
2021/05/04 03:23:08;;;;;;;1.10;1.10;;;21.40;41.20;;;;;;5050889;28;20415;-67
2021/05/04 03:25:34;;;;;;;1.30;1.20;;;21.40;41.10;;;;;;5051995;28;20419;-68
2021/05/04 03:28:00;;;;;;;1.30;1.20;;;21.50;41.10;;;;;;5050992;28;20494;-66
2021/05/04 03:30:26;;;;;;;1.13;1.02;;;21.50;40.90;;;;;;5052663;28;20412;-68
2021/05/04 03:32:52;;;;;;;1.40;1.30;;;21.60;41.10;;;;;;5051705;28;20427;-69
2021/05/04 03:35:19;;;;;;;1.20;1.10;;;21.60;40.90;;;;;;5051805;28;20417;-68
2021/05/04 03:37:46;;;;;;;1.20;1.10;;;21.60;40.90;;;;;;5047738;28;20408;-68
2021/05/04 03:40:12;;;;;;;1.08;1.08;;;21.60;40.80;;;;;;5035922;28;20420;-67
2021/05/04 03:42:38;;;;;;;1.30;1.30;;;21.60;40.80;;;;;;5043647;28;20430;-69
2021/05/04 03:45:06;;;;;;;1.17;1.17;;;21.60;40.80;;;;;;5048884;28;20426;-68
2021/05/04 03:47:32;;;;;;;1.10;1.10;;;21.50;40.90;;;;;;5026966;28;20413;-68
2021/05/04 03:49:58;;;;;;;1.30;1.30;;;21.50;41.00;;;;;;5052930;28;20416;-69
2021/05/04 03:52:24;;;;;;;1.20;1.10;;;21.50;41.10;;;;;;5029256;28;20407;-69
2021/05/04 03:54:51;;;;;;;1.35;1.20;;;21.40;41.00;;;;;;5021586;28;20448;-69
2021/05/04 03:57:18;;;;;;;1.17;1.00;;;21.40;41.10;;;;;;5052536;28;21047;-67
2021/05/04 03:59:44;;;;;;;1.27;1.17;;;21.50;41.10;;;;;;5051278;28;20431;-68
2021/05/04 04:02:10;;;;;;;1.20;1.20;;;21.50;41.20;;;;;;5042647;28;20417;-67
2021/05/04 04:04:36;;;;;;;1.30;1.20;;;21.50;41.20;;;;;;5050334;28;20435;-69
2021/05/04 04:07:02;;;;;;;1.00;1.00;;;21.50;41.10;;;;;;5035391;28;20418;-68
2021/05/04 04:09:28;;;;;;;1.00;1.00;;;21.50;40.80;;;;;;5035806;28;22318;-67
2021/05/04 04:11:55;;;;;;;0.90;0.90;;;21.50;40.80;;;;;;5039510;28;20403;-68
2021/05/04 04:14:21;;;;;;;2.17;0.90;;;21.60;40.90;;;;;;5049007;28;21899;-66
2021/05/04 04:16:47;;;;;;;1.05;1.00;;;21.60;40.80;;;;;;5052122;28;20956;-66
2021/05/04 04:19:13;;;;;;;1.80;0.97;;;21.60;40.70;;;;;;5048569;28;20454;-68
2021/05/04 04:21:40;;;;;;;1.13;1.00;;;21.50;40.70;;;;;;5040692;28;20432;-67
2021/05/04 04:24:07;;;;;;;1.10;1.00;;;21.50;40.80;;;;;;5048415;28;20931;-68
2021/05/04 04:26:33;;;;;;;1.30;1.20;;;21.60;40.80;;;;;;5049576;28;20411;-66
2021/05/04 04:29:00;;;;;;;1.17;1.08;;;21.50;40.50;;;;;;5048284;28;20502;-68
2021/05/04 04:31:26;;;;;;;0.95;0.95;;;21.60;40.80;;;;;;5047751;28;20416;-68
2021/05/04 04:33:52;;;;;;;1.20;1.20;;;21.60;40.70;;;;;;5038808;28;21108;-68
2021/05/04 04:36:18;;;;;;;1.10;1.00;;;21.50;40.50;;;;;;5049175;28;21213;-68
2021/05/04 04:38:44;;;;;;;1.20;1.00;;;21.60;40.30;;;;;;5033181;28;21222;-69
2021/05/04 04:41:11;;;;;;;1.00;1.00;;;21.70;40.20;;;;;;5036102;28;20433;-68
2021/05/04 04:43:37;;;;;;;0.88;0.88;;;21.70;40.10;;;;;;5047644;28;20407;-67
2021/05/04 04:46:04;;;;;;;1.23;1.23;;;21.70;40.10;;;;;;5021126;28;20465;-67
2021/05/04 04:48:30;;;;;;;1.67;1.10;;;21.70;40.20;;;;;;5051539;28;20419;-68
2021/05/04 04:50:56;;;;;;;1.03;0.93;;;21.70;40.50;;;;;;5026222;28;20418;-68
2021/05/04 04:53:22;;;;;;;1.30;1.20;;;21.60;40.50;;;;;;5047719;28;20424;-67
2021/05/04 04:55:48;;;;;;;1.20;1.00;;;21.60;40.70;;;;;;5020363;28;20480;-67
2021/05/04 04:58:14;;;;;;;1.00;0.90;;;21.50;41.00;;;;;;5029518;28;20419;-69
2021/05/04 05:00:40;;;;;;;1.48;0.90;;;21.50;41.10;;;;;;5051386;28;20419;-68
2021/05/04 05:03:07;;;;;;;1.30;1.30;;;21.40;40.90;;;;;;5051822;28;20422;-68
2021/05/04 05:05:34;;;;;;;1.45;1.35;;;21.50;41.10;;;;;;5042793;28;20407;-68
2021/05/04 05:08:00;;;;;;;1.30;1.20;;;21.50;41.10;;;;;;5020170;28;20921;-69
2021/05/04 05:10:26;;;;;;;1.88;1.00;;;21.50;41.20;;;;;;5049294;28;20404;-69
2021/05/04 05:12:52;;;;;;;1.33;1.20;;;21.50;41.20;;;;;;5047726;28;20423;-69
2021/05/04 05:15:18;;;;;;;3.90;1.70;;;21.50;41.30;;;;;;5038925;28;20428;-69
2021/05/04 05:17:44;;;;;;;7.65;1.88;;;21.50;43.70;;;;;;5020172;28;20427;-68
2021/05/04 05:20:13;;;;;;;12.32;1.88;;;21.60;43.90;;;;;;5035000;28;20407;-68
2021/05/04 05:22:39;;;;;;;4.65;1.30;;;21.60;42.20;;;;;;5038901;28;20958;-68
2021/05/04 05:25:06;;;;;;;1.30;1.17;;;21.60;42.00;;;;;;5049873;28;20440;-68
2021/05/04 05:27:33;;;;;;;2.00;1.30;;;21.60;41.80;;;;;;5051846;28;21135;-65
2021/05/04 05:29:59;;;;;;;2.80;1.30;;;21.60;41.70;;;;;;5036675;28;20439;-69
2021/05/04 05:32:25;;;;;;;1.85;1.30;;;21.50;41.60;;;;;;5042896;28;20430;-67
2021/05/04 05:34:51;;;;;;;2.03;1.35;;;21.50;41.70;;;;;;5028111;28;20930;-66
2021/05/04 05:37:19;;;;;;;1.30;1.10;;;21.50;41.80;;;;;;5050994;28;20427;-66
2021/05/04 05:39:45;;;;;;;2.50;1.00;;;21.40;41.90;;;;;;5050186;28;20780;-65
2021/05/04 05:42:11;;;;;;;1.75;1.30;;;21.40;41.40;;;;;;5042665;28;20880;-68
2021/05/04 05:44:37;;;;;;;1.20;1.10;;;21.50;42.00;;;;;;5039240;28;20426;-68
2021/05/04 05:47:03;;;;;;;1.80;1.30;;;21.50;42.00;;;;;;5045089;28;20426;-67
2021/05/04 05:49:30;;;;;;;3.40;1.40;;;21.40;41.90;;;;;;5042033;28;20507;-67
2021/05/04 05:51:56;;;;;;;1.42;1.13;;;21.50;42.00;;;;;;5035361;28;20499;-67
2021/05/04 05:54:23;;;;;;;1.45;1.20;;;21.50;41.90;;;;;;5050316;28;20502;-67
2021/05/04 05:56:49;;;;;;;1.40;1.30;;;21.50;42.00;;;;;;5052557;28;20423;-66
2021/05/04 05:59:15;;;;;;;3.00;1.10;;;21.40;41.80;;;;;;5048659;28;20418;-68
2021/05/04 06:01:42;;;;;;;1.73;1.10;;;21.40;41.90;;;;;;5050807;28;20414;-66
2021/05/04 06:04:08;;;;;;;1.60;1.10;;;21.40;41.90;;;;;;5052423;28;20419;-66
2021/05/04 06:06:34;;;;;;;1.23;1.13;;;21.40;41.90;;;;;;5015407;28;20420;-66
2021/05/04 06:09:00;;;;;;;1.55;1.30;;;21.40;41.90;;;;;;5050712;28;20423;-67
2021/05/04 06:11:27;;;;;;;1.20;1.00;;;21.40;42.00;;;;;;5052652;28;20416;-65
2021/05/04 06:13:53;;;;;;;1.35;1.25;;;21.40;42.00;;;;;;5050484;28;20429;-67
2021/05/04 06:16:19;;;;;;;0.90;0.90;;;21.40;42.10;;;;;;5049287;28;20425;-68
2021/05/04 06:18:46;;;;;;;1.10;0.90;;;21.40;42.10;;;;;;5033775;28;20426;-67
2021/05/04 06:21:12;;;;;;;1.17;1.17;;;21.50;42.20;;;;;;5035124;28;20419;-65
2021/05/04 06:23:38;;;;;;;2.53;1.15;;;21.50;42.20;;;;;;5042444;28;20422;-67
2021/05/04 06:26:04;;;;;;;1.23;1.00;;;21.50;42.20;;;;;;5027884;28;20508;-66
2021/05/04 06:28:32;;;;;;;1.40;0.98;;;21.50;42.10;;;;;;5031954;28;20404;-67
2021/05/04 06:30:58;;;;;;;1.00;1.00;;;21.50;42.20;;;;;;5046229;28;20431;-68
2021/05/04 06:33:24;;;;;;;1.20;1.00;;;21.50;42.40;;;;;;5054840;28;20473;-67
2021/05/04 06:35:51;;;;;;;1.80;0.90;;;21.40;42.30;;;;;;5050602;28;20422;-68
2021/05/04 06:38:18;;;;;;;1.08;1.08;;;21.40;42.30;;;;;;5035986;28;20430;-67
2021/05/04 06:40:46;;;;;;;1.95;1.20;;;21.40;42.40;;;;;;5010496;28;20422;-68
2021/05/04 06:43:12;;;;;;;1.30;1.20;;;21.40;42.30;;;;;;5025234;28;21001;-67
2021/05/04 06:45:39;;;;;;;1.92;1.20;;;21.40;42.50;;;;;;5049890;28;20415;-66
2021/05/04 06:48:06;;;;;;;2.10;1.00;;;21.40;42.40;;;;;;5027101;28;20573;-68
2021/05/04 06:50:32;;;;;;;1.15;0.90;;;21.40;42.40;;;;;;5048369;28;20411;-66
2021/05/04 06:52:58;;;;;;;1.17;0.90;;;21.30;42.40;;;;;;5023214;28;20415;-67
2021/05/04 06:55:24;;;;;;;0.90;0.90;;;21.40;42.50;;;;;;5036861;28;20487;-67
2021/05/04 06:57:50;;;;;;;2.70;0.95;;;21.40;42.50;;;;;;5039128;28;20454;-68
2021/05/04 07:00:17;;;;;;;0.90;0.90;;;21.30;42.50;;;;;;5056490;28;21001;-67
2021/05/04 07:02:44;;;;;;;1.55;1.00;;;21.30;42.60;;;;;;5038433;28;20415;-67
2021/05/04 07:05:11;;;;;;;1.00;0.90;;;21.30;42.50;;;;;;5042380;28;20994;-68
2021/05/04 07:07:37;;;;;;;0.80;0.80;;;21.30;42.60;;;;;;5028096;28;20415;-68
2021/05/04 07:10:04;;;;;;;1.05;0.98;;;21.30;42.60;;;;;;5049107;28;20421;-68
2021/05/04 07:12:30;;;;;;;1.10;0.90;;;21.30;43.40;;;;;;5037345;28;20423;-68
2021/05/04 07:14:56;;;;;;;1.45;1.00;;;21.30;42.60;;;;;;5035311;28;20413;-66
2021/05/04 07:17:23;;;;;;;1.70;1.00;;;21.30;42.60;;;;;;5053636;28;20415;-68
2021/05/04 07:19:51;;;;;;;2.78;0.80;;;21.30;42.60;;;;;;5040929;28;20455;-68
2021/05/04 07:22:21;;;;;;;0.70;0.70;;;21.30;42.60;;;;;;5044880;28;20496;-67
2021/05/04 07:24:47;;;;;;;1.20;0.80;;;21.30;42.60;;;;;;5039289;28;20418;-69
2021/05/04 07:27:13;;;;;;;1.00;0.70;;;21.30;43.70;;;;;;5049078;28;20420;-68
2021/05/04 07:29:39;;;;;;;1.20;0.90;;;21.30;43.20;;;;;;5043194;28;20423;-65
2021/05/04 07:32:06;;;;;;;1.70;0.80;;;21.30;42.80;;;;;;5041267;28;20419;-68
2021/05/04 07:34:32;;;;;;;0.80;0.80;;;21.30;42.70;;;;;;5050564;28;20415;-67
2021/05/04 07:36:59;;;;;;;1.10;1.10;;;21.40;43.50;;;;;;5047507;28;20409;-67
2021/05/04 07:39:26;;;;;;;1.00;0.90;;;21.40;42.80;;;;;;5049398;28;20469;-68
2021/05/04 07:41:52;;;;;;;1.50;0.90;;;21.40;42.60;;;;;;5027857;28;20416;-68
2021/05/04 07:44:19;;;;;;;0.80;0.80;;;21.40;42.60;;;;;;5035485;28;20421;-66
2021/05/04 07:46:45;;;;;;;0.98;0.95;;;21.40;42.60;;;;;;5033393;28;20431;-68
2021/05/04 07:49:17;;;;;;;0.80;0.80;;;21.40;42.50;;;;;;5050575;28;20417;-68
2021/05/04 07:51:43;;;;;;;0.80;0.80;;;21.40;42.60;;;;;;5016902;28;20416;-66
2021/05/04 07:54:10;;;;;;;3.50;1.00;;;21.40;42.50;;;;;;5007333;28;20475;-68
2021/05/04 07:56:36;;;;;;;1.40;0.90;;;21.40;42.50;;;;;;5034297;28;20432;-68
2021/05/04 07:59:02;;;;;;;1.00;0.80;;;21.40;42.60;;;;;;5034452;28;20424;-66
2021/05/04 08:01:29;;;;;;;0.80;0.80;;;21.40;42.70;;;;;;5031219;28;20419;-67
2021/05/04 08:03:55;;;;;;;1.10;1.00;;;21.40;42.70;;;;;;5047120;28;21335;-68
2021/05/04 08:06:21;;;;;;;0.70;0.70;;;21.30;42.70;;;;;;5033309;28;20484;-66
2021/05/04 08:08:47;;;;;;;1.80;1.00;;;21.30;42.70;;;;;;5032898;28;20435;-67
2021/05/04 08:11:14;;;;;;;0.80;0.80;;;21.30;42.80;;;;;;5047919;28;20419;-67
2021/05/04 08:13:40;;;;;;;0.90;0.90;;;21.30;42.80;;;;;;5029076;28;20431;-67
2021/05/04 08:16:08;;;;;;;0.70;0.70;;;21.30;42.80;;;;;;5048595;28;20420;-67
2021/05/04 08:18:35;;;;;;;0.90;0.90;;;21.30;42.80;;;;;;5011022;28;20419;-69
2021/05/04 08:21:01;;;;;;;2.20;0.70;;;21.20;42.90;;;;;;5023438;28;20397;-67
2021/05/04 08:23:27;;;;;;;1.10;1.00;;;21.30;42.90;;;;;;5036482;28;20540;-69
2021/05/04 08:25:53;;;;;;;1.20;0.80;;;21.30;42.90;;;;;;5031024;28;20978;-66
2021/05/04 08:28:21;;;;;;;0.80;0.73;;;21.30;42.90;;;;;;5036629;28;20412;-68
2021/05/04 08:30:47;;;;;;;0.70;0.70;;;21.40;42.90;;;;;;5038608;28;20423;-67
2021/05/04 08:33:13;;;;;;;0.80;0.80;;;21.40;42.70;;;;;;5017849;28;20419;-66
2021/05/04 08:35:39;;;;;;;0.60;0.60;;;21.50;42.70;;;;;;5041225;28;20416;-67
2021/05/04 08:38:05;;;;;;;1.52;0.90;;;21.50;42.60;;;;;;5038582;28;20407;-68
2021/05/04 08:40:31;;;;;;;0.70;0.70;;;21.50;42.50;;;;;;5027264;28;20472;-66
2021/05/04 08:42:58;;;;;;;0.73;0.73;;;21.50;42.40;;;;;;5047287;28;20420;-67
2021/05/04 08:45:25;;;;;;;0.70;0.70;;;21.60;42.40;;;;;;5039892;28;20415;-68
2021/05/04 08:47:51;;;;;;;0.90;0.80;;;21.60;42.50;;;;;;5038168;28;21104;-68
2021/05/04 08:50:18;;;;;;;1.40;0.80;;;21.50;42.40;;;;;;5036562;28;20439;-68
2021/05/04 08:52:44;;;;;;;0.70;0.70;;;21.50;42.50;;;;;;5024498;28;20429;-68
2021/05/04 08:55:11;;;;;;;1.17;0.80;;;21.50;43.30;;;;;;5037800;28;20412;-68
2021/05/04 08:57:38;;;;;;;1.77;0.80;;;21.50;42.60;;;;;;5047427;28;20415;-67
2021/05/04 09:00:06;;;;;;;0.70;0.70;;;21.50;42.60;;;;;;5023443;28;20536;-68
2021/05/04 09:02:36;;;;;;;0.70;0.70;;;21.40;42.60;;;;;;5037802;28;20427;-68
2021/05/04 09:05:16;;;;;;;1.20;0.70;;;21.40;42.60;;;;;;5030415;28;20431;-67
2021/05/04 09:07:42;;;;;;;1.10;1.00;;;21.40;42.60;;;;;;5005676;28;20962;-67
2021/05/04 09:10:18;;;;;;;0.75;0.75;;;21.40;42.60;;;;;;5043537;28;20420;-67
2021/05/04 09:12:45;;;;;;;0.70;0.70;;;21.40;42.70;;;;;;5049359;28;20426;-66
2021/05/04 09:15:45;;;;;;;0.70;0.60;;;21.40;42.60;;;;;;5032475;28;20427;-67
2021/05/04 09:21:38;;;;;;;0.70;0.70;;;21.40;42.80;;;;;;5031774;28;20442;-67
2021/05/04 09:24:26;;;;;;;1.52;0.70;;;21.50;42.90;;;;;;5022467;28;20869;-67
2021/05/04 09:27:00;;;;;;;0.70;0.70;;;21.50;42.80;;;;;;5047469;28;20407;-68
2021/05/04 09:29:31;;;;;;;0.60;0.60;;;21.50;42.80;;;;;;5033358;28;20463;-68
2021/05/04 09:32:11;;;;;;;0.70;0.70;;;21.50;42.70;;;;;;5046700;28;20404;-67
2021/05/04 09:34:42;;;;;;;0.70;0.67;;;21.60;42.80;;;;;;5034218;28;20407;-68
2021/05/04 09:37:10;;;;;;;1.27;0.85;;;21.60;42.80;;;;;;5048157;28;20408;-66
2021/05/04 09:39:36;;;;;;;1.40;0.70;;;21.60;42.90;;;;;;5051060;28;20411;-67
2021/05/04 09:42:11;;;;;;;0.70;0.70;;;21.50;42.80;;;;;;5008603;28;20424;-68
2021/05/04 09:44:37;;;;;;;0.80;0.80;;;21.50;42.80;;;;;;5041170;28;20415;-66
2021/05/04 09:47:04;;;;;;;0.65;0.65;;;21.50;42.70;;;;;;5045045;28;20475;-66
2021/05/04 09:49:30;;;;;;;1.90;0.80;;;21.60;42.90;;;;;;5036843;28;20412;-68
2021/05/04 09:52:22;;;;;;;1.50;0.70;;;21.60;42.80;;;;;;5023216;28;20419;-67
2021/05/04 09:54:48;;;;;;;0.70;0.70;;;21.60;42.80;;;;;;5042639;28;20407;-67
2021/05/04 09:57:44;;;;;;;2.10;0.60;;;21.60;42.70;;;;;;5048977;28;21560;-66
2021/05/04 10:00:12;;;;;;;2.00;0.70;;;21.60;42.70;;;;;;4966516;28;20473;-68
2021/05/04 10:02:38;;;;;;;0.68;0.68;;;21.60;42.80;;;;;;5028254;28;20413;-67
2021/05/04 10:05:05;;;;;;;0.63;0.63;;;21.60;42.80;;;;;;5048595;28;20412;-66
2021/05/04 10:07:32;;;;;;;0.70;0.70;;;21.50;42.70;;;;;;5030196;28;20442;-68
2021/05/04 10:09:59;;;;;;;0.63;0.60;;;21.50;42.70;;;;;;5021167;28;20411;-68
2021/05/04 10:12:25;;;;;;;1.00;0.60;;;21.50;42.70;;;;;;5036810;28;20446;-68
2021/05/04 10:14:51;;;;;;;0.65;0.65;;;21.50;42.80;;;;;;5029802;28;20416;-68
2021/05/04 10:17:19;;;;;;;1.20;0.50;;;21.50;42.90;;;;;;5030109;28;20857;-66
2021/05/04 10:19:45;;;;;;;0.60;0.60;;;21.40;42.80;;;;;;5046154;28;20417;-67
2021/05/04 10:22:11;;;;;;;0.50;0.50;;;21.40;42.90;;;;;;5042564;28;20426;-68
2021/05/04 10:24:38;;;;;;;0.60;0.60;;;21.40;42.80;;;;;;5046893;28;20410;-67
2021/05/04 10:27:05;;;;;;;1.33;1.10;;;21.50;42.90;;;;;;5050624;28;20419;-67
2021/05/04 10:29:31;;;;;;;1.10;0.50;;;21.50;42.80;;;;;;5021977;28;20903;-65
2021/05/04 10:31:59;;;;;;;0.70;0.60;;;21.50;42.90;;;;;;5047211;28;20416;-67
2021/05/04 10:34:26;;;;;;;0.65;0.60;;;21.50;42.80;;;;;;5039297;28;20971;-67
2021/05/04 10:36:52;;;;;;;0.70;0.50;;;21.50;42.90;;;;;;5043411;28;20423;-66
2021/05/04 10:39:33;;;;;;;0.80;0.60;;;21.50;42.90;;;;;;5041129;28;20454;-67
2021/05/04 10:42:00;;;;;;;0.60;0.50;;;21.50;43.80;;;;;;5028140;28;21048;-67
2021/05/04 10:44:26;;;;;;;0.75;0.75;;;21.50;43.20;;;;;;5036050;28;21020;-65
2021/05/04 10:46:54;;;;;;;0.77;0.77;;;21.40;43.20;;;;;;5023722;28;20946;-68
2021/05/04 10:49:26;;;;;;;0.63;0.50;;;21.40;43.20;;;;;;5032806;28;20424;-67
2021/05/04 10:51:53;;;;;;;0.90;0.70;;;21.40;43.30;;;;;;5034895;28;20423;-67
2021/05/04 10:54:19;;;;;;;0.55;0.55;;;21.40;43.40;;;;;;5050271;28;20516;-67
2021/05/04 10:56:47;;;;;;;0.75;0.60;;;21.40;43.40;;;;;;5051891;28;20495;-68
2021/05/04 10:59:30;;;;;;;1.50;0.60;;;21.40;43.50;;;;;;5046705;28;20412;-67
2021/05/04 11:02:26;;;;;;;0.80;0.80;;;21.40;43.50;;;;;;5050519;28;20461;-65
2021/05/04 11:04:55;;;;;;;1.50;0.70;;;21.40;43.80;;;;;;5018289;28;20428;-68
2021/05/04 11:07:51;;;;;;;0.70;0.70;;;21.40;43.80;;;;;;5030737;28;20492;-67
2021/05/04 11:10:17;;;;;;;1.20;0.73;;;21.40;43.90;;;;;;5021580;28;20555;-67
2021/05/04 11:12:44;;;;;;;1.00;0.60;;;21.40;43.90;;;;;;5020661;28;20420;-68
2021/05/04 11:15:21;;;;;;;0.50;0.50;;;21.40;43.90;;;;;;5035491;28;20918;-67
2021/05/04 11:17:47;;;;;;;0.70;0.70;;;21.40;43.90;;;;;;5031521;28;20489;-67
2021/05/04 11:20:33;;;;;;;0.60;0.60;;;21.40;44.00;;;;;;4966202;28;20676;-66
2021/05/04 11:22:59;;;;;;;0.80;0.50;;;21.40;43.80;;;;;;5021125;28;20492;-69
2021/05/04 11:25:34;;;;;;;2.30;0.60;;;21.50;43.80;;;;;;5031014;28;21488;-64
2021/05/04 11:28:00;;;;;;;0.90;0.70;;;21.50;44.50;;;;;;4939452;28;21285;-65
2021/05/04 11:30:38;;;;;;;0.80;0.57;;;21.50;43.60;;;;;;5018356;28;20420;-69
2021/05/04 11:33:26;;;;;;;0.80;0.70;;;21.50;43.60;;;;;;5022184;28;20414;-67
2021/05/04 11:35:52;;;;;;;1.50;0.60;;;21.50;43.60;;;;;;4994931;28;20473;-67
2021/05/04 11:38:19;;;;;;;1.20;0.75;;;21.40;43.50;;;;;;5048248;28;20438;-67
2021/05/04 11:40:45;;;;;;;0.50;0.50;;;21.40;43.50;;;;;;5046346;28;21432;-69
2021/05/04 11:43:14;;;;;;;0.50;0.50;;;21.50;43.60;;;;;;5021440;28;20414;-69
2021/05/04 11:45:41;;;;;;;2.08;0.75;;;21.50;43.70;;;;;;5012969;28;20435;-69
2021/05/04 11:48:08;;;;;;;0.70;0.50;;;21.50;43.60;;;;;;5020012;28;21033;-67
2021/05/04 11:50:34;;;;;;;1.00;0.77;;;21.50;43.50;;;;;;5042368;28;20423;-67
2021/05/04 11:53:02;;;;;;;4.72;0.63;;;21.50;43.40;;;;;;5017200;28;20432;-69
2021/05/04 11:55:28;;;;;;;0.70;0.60;;;21.50;43.30;;;;;;5018634;28;20971;-65
2021/05/04 11:57:56;;;;;;;0.63;0.63;;;21.50;43.40;;;;;;5033957;28;20420;-66
2021/05/04 12:00:23;;;;;;;0.88;0.55;;;21.50;43.30;;;;;;5045209;28;20883;-67
2021/05/04 12:02:50;;;;;;;0.80;0.60;;;21.50;43.40;;;;;;5029214;28;20423;-70
2021/05/04 12:05:24;;;;;;;0.77;0.50;;;21.40;43.30;;;;;;5013217;28;21070;-70
2021/05/04 12:07:50;;;;;;;2.28;0.52;;;21.40;43.40;;;;;;5022083;28;20415;-69
2021/05/04 12:10:31;;;;;;;0.60;0.57;;;21.40;43.40;;;;;;5041773;28;20424;-68
2021/05/04 12:12:58;;;;;;;1.10;0.60;;;21.40;43.40;;;;;;5043531;28;20417;-69
2021/05/04 12:15:25;;;;;;;0.90;0.60;;;21.40;44.20;;;;;;5018528;28;20408;-68
2021/05/04 12:18:03;;;;;;;0.65;0.50;;;21.40;43.50;;;;;;5025366;28;21501;-66
2021/05/04 12:20:30;;;;;;;0.80;0.80;;;21.40;43.50;;;;;;5044628;28;20422;-65
2021/05/04 12:22:57;;;;;;;2.00;0.50;;;21.40;43.50;;;;;;5022813;28;20432;-68
2021/05/04 12:25:27;;;;;;;0.70;0.70;;;21.40;43.50;;;;;;5043278;28;20419;-67
2021/05/04 12:27:54;;;;;;;0.70;0.50;;;21.50;43.60;;;;;;5041938;28;20462;-66
2021/05/04 12:30:21;;;;;;;0.88;0.60;;;21.50;43.60;;;;;;5033494;28;20549;-67
2021/05/04 12:32:47;;;;;;;1.60;0.70;;;21.50;43.60;;;;;;5031249;28;20486;-69
2021/05/04 12:35:20;;;;;;;0.50;0.50;;;21.50;43.70;;;;;;5035721;28;20406;-68
2021/05/04 12:37:48;;;;;;;2.10;0.60;;;21.50;43.60;;;;;;5027594;28;21066;-66
2021/05/04 12:40:16;;;;;;;0.75;0.60;;;21.50;43.60;;;;;;5035997;28;20819;-68
2021/05/04 12:42:43;;;;;;;0.70;0.60;;;21.50;43.70;;;;;;5002493;28;20478;-68
2021/05/04 12:45:10;;;;;;;1.90;0.60;;;21.50;43.90;;;;;;5029163;28;20424;-67
2021/05/04 12:47:48;;;;;;;1.25;0.63;;;21.40;43.80;;;;;;5045731;28;20526;-69
2021/05/04 12:50:27;;;;;;;0.50;0.50;;;21.40;43.90;;;;;;5030150;28;20454;-66
2021/05/04 12:52:56;;;;;;;1.00;0.60;;;21.40;43.90;;;;;;5027189;28;20515;-68